Time;durP1;ratioP1;P1;durP2;ratioP2;P2;SDS_P1;SDS_P2;PMS_P1;PMS_P2;Temp;Humidity;BMP_temperature;BMP_pressure;BME280_temperature;BME280_humidity;BME280_pressure;Samples;Min_cycle;Max_cycle;Signal;HPM_P1;HPM_P2
2023/06/03 00:02:13;;;;;;;12.50;4.00;;;;;;;1.59;65.93;97285.56;5047983;28;20041;-52
2023/06/03 00:04:41;;;;;;;15.88;5.25;;;;;;;1.46;65.72;97278.34;5048996;28;20048;-51
2023/06/03 00:07:09;;;;;;;15.63;4.50;;;;;;;1.41;66.26;97284.09;5056020;28;20040;-53
2023/06/03 00:09:35;;;;;;;15.38;4.15;;;;;;;1.47;65.93;97287.78;5051304;28;20076;-53
2023/06/03 00:12:02;;;;;;;12.40;3.90;;;;;;;1.41;66.23;97276.28;5055817;28;20390;-53
2023/06/03 00:14:28;;;;;;;12.43;4.80;;;;;;;1.43;66.58;97281.31;5050968;28;20077;-52
2023/06/03 00:16:56;;;;;;;13.02;4.13;;;;;;;1.41;66.62;97278.06;5055899;28;20045;-53
2023/06/03 00:19:23;;;;;;;18.05;4.45;;;;;;;1.25;66.51;97279.84;5050781;28;20413;-53
2023/06/03 00:21:49;;;;;;;13.85;4.18;;;;;;;1.30;66.61;97279.34;5055871;28;20060;-53
2023/06/03 00:24:22;;;;;;;13.90;4.05;;;;;;;1.27;66.70;97279.69;5052065;28;20067;-52
2023/06/03 00:26:50;;;;;;;22.05;4.53;;;;;;;1.29;66.46;97282.94;5055778;28;20094;-53
2023/06/03 00:29:19;;;;;;;13.73;4.20;;;;;;;1.13;66.96;97282.13;5051141;28;20128;-53
2023/06/03 00:31:46;;;;;;;20.90;4.85;;;;;;;1.24;66.78;97283.47;5055718;28;20041;-53
2023/06/03 00:34:13;;;;;;;18.70;4.00;;;;;;;1.17;66.70;97284.38;5050773;28;20049;-53
2023/06/03 00:36:40;;;;;;;14.18;4.32;;;;;;;1.24;66.98;97277.44;5055474;28;20426;-53
2023/06/03 00:39:07;;;;;;;14.73;4.10;;;;;;;1.05;66.91;97282.19;5051093;28;20045;-52
2023/06/03 00:41:34;;;;;;;16.63;4.57;;;;;;;1.14;67.23;97278.50;5055146;28;20402;-53
2023/06/03 00:44:01;;;;;;;14.63;4.32;;;;;;;1.08;67.16;97270.59;5050708;28;20044;-50
2023/06/03 00:46:32;;;;;;;15.18;4.25;;;;;;;1.10;67.10;97269.41;5055039;28;20072;-51
2023/06/03 00:48:59;;;;;;;15.18;4.40;;;;;;;1.09;67.39;97272.19;5051407;28;20065;-52
2023/06/03 00:51:26;;;;;;;13.02;4.50;;;;;;;1.07;67.34;97264.53;5054658;28;20072;-51
2023/06/03 00:53:53;;;;;;;14.25;4.22;;;;;;;1.08;67.64;97271.38;5050529;28;20045;-53
2023/06/03 00:56:20;;;;;;;17.38;4.18;;;;;;;0.97;67.79;97269.22;5054923;28;20079;-51
2023/06/03 00:58:46;;;;;;;14.43;4.55;;;;;;;0.89;68.43;97262.28;5050164;28;20140;-53
2023/06/03 01:01:14;;;;;;;19.17;4.47;;;;;;;0.92;68.23;97259.31;5054741;28;20445;-51
2023/06/03 01:03:42;;;;;;;10.75;4.13;;;;;;;0.98;68.08;97264.81;5050571;28;20135;-52
2023/06/03 01:06:24;;;;;;;14.27;4.13;;;;;;;0.89;68.68;97258.84;5054860;28;20076;-51
2023/06/03 01:09:22;;;;;;;12.68;4.20;;;;;;;0.96;68.72;97259.75;5050410;28;20533;-51
2023/06/03 01:12:19;;;;;;;11.15;4.22;;;;;;;0.83;68.57;97256.97;5054254;28;20049;-53
2023/06/03 01:14:55;;;;;;;10.73;3.95;;;;;;;0.86;68.41;97262.63;5052375;28;20123;-53
2023/06/03 01:17:27;;;;;;;18.42;4.47;;;;;;;0.82;68.84;97253.53;5054682;28;20052;-53
2023/06/03 01:19:56;;;;;;;11.98;3.85;;;;;;;0.84;68.88;97258.59;5050159;28;20045;-50
2023/06/03 01:22:26;;;;;;;12.10;4.00;;;;;;;0.81;68.68;97254.53;5054433;28;20072;-51
2023/06/03 01:25:10;;;;;;;14.63;4.05;;;;;;;0.83;69.63;97251.75;5049307;28;20479;-53
2023/06/03 01:27:39;;;;;;;15.93;4.53;;;;;;;0.80;69.35;97252.91;5053404;28;20053;-52
2023/06/03 01:30:10;;;;;;;13.25;4.10;;;;;;;0.75;69.71;97253.44;5065116;28;20075;-53
2023/06/03 01:32:38;;;;;;;11.38;3.80;;;;;;;0.72;69.71;97245.94;5073893;28;20505;-52
2023/06/03 01:35:10;;;;;;;11.65;4.13;;;;;;;0.61;70.12;97246.38;5070568;28;20072;-53
2023/06/03 01:37:39;;;;;;;15.27;4.28;;;;;;;0.67;70.02;97247.47;5074548;28;20048;-53
2023/06/03 01:40:07;;;;;;;18.73;4.63;;;;;;;0.57;69.75;97248.53;5069569;28;20068;-52
2023/06/03 01:42:37;;;;;;;15.65;4.30;;;;;;;0.70;69.94;97257.56;5073971;28;20068;-51
2023/06/03 01:45:05;;;;;;;14.40;4.07;;;;;;;0.69;70.36;97261.97;5069303;28;20048;-52
2023/06/03 01:47:34;;;;;;;12.93;4.20;;;;;;;0.49;70.38;97253.81;5074157;28;20056;-53
2023/06/03 01:50:00;;;;;;;12.27;4.40;;;;;;;0.46;70.93;97258.56;5064730;28;20041;-53
2023/06/03 01:52:29;;;;;;;15.13;4.65;;;;;;;0.47;70.41;97253.16;5050287;28;20568;-52
2023/06/03 01:54:56;;;;;;;12.05;4.30;;;;;;;0.40;70.70;97248.81;5053776;28;20057;-53
2023/06/03 01:57:24;;;;;;;13.50;4.72;;;;;;;0.50;70.40;97252.81;5053706;28;20057;-52
2023/06/03 01:59:53;;;;;;;14.30;4.60;;;;;;;0.43;70.81;97249.28;5049566;28;20056;-52
2023/06/03 02:02:19;;;;;;;14.07;4.22;;;;;;;0.45;70.34;97244.72;5053910;28;20048;-52
2023/06/03 02:04:48;;;;;;;15.82;4.40;;;;;;;0.36;70.88;97243.16;5049107;28;20057;-53
2023/06/03 02:07:14;;;;;;;12.57;4.57;;;;;;;0.42;70.92;97249.47;5052588;28;20083;-53
2023/06/03 02:09:41;;;;;;;14.15;4.40;;;;;;;0.35;70.43;97238.94;5045934;28;20132;-53
2023/06/03 02:12:08;;;;;;;12.98;4.35;;;;;;;0.40;70.90;97246.22;5053790;28;20037;-53
2023/06/03 02:14:37;;;;;;;14.25;4.45;;;;;;;0.38;70.76;97251.59;5053320;28;20098;-53
2023/06/03 02:17:06;;;;;;;13.02;4.13;;;;;;;0.45;70.35;97246.50;5050574;28;20045;-52
2023/06/03 02:19:32;;;;;;;14.93;4.45;;;;;;;0.48;70.10;97252.19;5050953;28;20102;-54
2023/06/03 02:21:59;;;;;;;16.67;5.03;;;;;;;0.44;69.71;97247.47;5051888;28;20037;-53
2023/06/03 02:24:31;;;;;;;15.82;3.85;;;;;;;0.43;69.37;97251.91;5053373;28;20056;-52
2023/06/03 02:27:01;;;;;;;11.00;4.00;;;;;;;0.37;69.08;97247.38;5047312;28;20052;-53
2023/06/03 02:29:29;;;;;;;10.73;3.85;;;;;;;0.39;68.50;97250.63;5052865;28;20407;-54
2023/06/03 02:31:57;;;;;;;16.33;4.38;;;;;;;0.43;67.69;97254.50;5048776;28;20044;-52
2023/06/03 02:34:25;;;;;;;14.77;4.00;;;;;;;0.51;67.71;97257.06;5049993;28;20075;-53
2023/06/03 02:36:52;;;;;;;14.93;4.15;;;;;;;0.36;67.96;97250.97;5053031;28;20051;-53
2023/06/03 02:39:20;;;;;;;12.02;4.47;;;;;;;0.35;68.14;97246.75;5048727;28;20055;-53
2023/06/03 02:41:47;;;;;;;10.38;4.00;;;;;;;0.26;67.75;97248.59;5053229;28;20044;-53
2023/06/03 02:44:16;;;;;;;18.70;4.22;;;;;;;0.27;68.33;97252.00;5048424;28;20052;-53
2023/06/03 02:46:43;;;;;;;13.02;3.75;;;;;;;0.24;68.70;97252.34;5052809;28;20049;-53
2023/06/03 02:49:12;;;;;;;11.02;3.70;;;;;;;0.26;68.17;97259.03;5047962;28;20102;-53
2023/06/03 02:51:40;;;;;;;18.13;4.47;;;;;;;0.05;68.23;97249.22;5052521;28;20483;-53
2023/06/03 02:54:07;;;;;;;19.58;4.30;;;;;;;0.17;67.89;97249.66;5048136;28;20072;-53
2023/06/03 02:56:34;;;;;;;12.48;4.15;;;;;;;0.18;68.04;97262.50;5052811;28;20053;-52
2023/06/03 02:59:00;;;;;;;12.15;4.20;;;;;;;0.07;67.67;97262.88;5049393;28;20092;-52
2023/06/03 03:01:27;;;;;;;8.73;3.67;;;;;;;0.16;67.36;97258.44;5052625;28;20044;-53
2023/06/03 03:03:54;;;;;;;12.98;3.78;;;;;;;0.16;67.33;97261.03;5048231;28;20406;-53
2023/06/03 03:06:22;;;;;;;11.45;3.80;;;;;;;0.13;66.67;97258.81;5052593;28;20053;-53
2023/06/03 03:08:50;;;;;;;16.70;4.32;;;;;;;0.16;67.09;97259.28;5048305;28;20071;-53
2023/06/03 03:11:19;;;;;;;12.38;3.63;;;;;;;0.13;66.72;97261.41;5053151;28;20052;-53
2023/06/03 03:13:47;;;;;;;11.82;3.80;;;;;;;0.18;66.49;97272.09;5047037;28;20041;-53
2023/06/03 03:16:17;;;;;;;12.38;3.67;;;;;;;0.13;66.05;97264.81;5052738;28;20454;-53
2023/06/03 03:18:47;;;;;;;9.82;3.50;;;;;;;0.11;65.75;97265.97;5051367;28;20455;-53
2023/06/03 03:21:14;;;;;;;9.18;3.70;;;;;;;-0.10;65.79;97266.59;5052957;28;20132;-53
2023/06/03 03:23:41;;;;;;;17.95;3.80;;;;;;;-0.13;66.12;97269.53;5048070;28;20053;-52
2023/06/03 03:26:08;;;;;;;11.38;3.55;;;;;;;-0.04;65.78;97268.50;5052756;28;20068;-52
2023/06/03 03:28:36;;;;;;;9.50;3.85;;;;;;;-0.18;65.39;97272.66;5045121;28;20045;-53
2023/06/03 03:31:04;;;;;;;8.60;3.50;;;;;;;-0.10;65.01;97272.59;5069315;28;20086;-53
2023/06/03 03:33:32;;;;;;;12.57;3.65;;;;;;;-0.08;65.67;97270.63;5067932;28;20127;-53
2023/06/03 03:36:08;;;;;;;11.82;4.30;;;;;;;-0.16;64.92;97269.84;5072106;28;20053;-52
2023/06/03 03:38:37;;;;;;;13.35;3.70;;;;;;;-0.28;64.77;97266.84;5067468;28;20478;-53
2023/06/03 03:41:05;;;;;;;11.38;3.78;;;;;;;-0.20;64.37;97269.38;5071751;28;20136;-53
2023/06/03 03:43:34;;;;;;;10.85;3.50;;;;;;;-0.10;63.65;97263.97;5076502;28;20040;-53
2023/06/03 03:46:09;;;;;;;9.35;3.75;;;;;;;-0.20;63.81;97270.22;5071525;28;20159;-54
2023/06/03 03:48:36;;;;;;;14.18;3.67;;;;;;;-0.18;63.86;97271.81;5075803;28;20071;-53
2023/06/03 03:51:03;;;;;;;11.32;3.70;;;;;;;-0.13;63.46;97274.75;5071436;28;20052;-53
2023/06/03 03:53:35;;;;;;;12.30;3.58;;;;;;;-0.18;62.61;97271.81;5075993;28;20068;-54
2023/06/03 03:56:07;;;;;;;11.98;3.67;;;;;;;-0.30;62.58;97261.78;5071502;28;20551;-52
2023/06/03 03:58:42;;;;;;;13.60;3.50;;;;;;;-0.24;62.41;97270.72;5075767;28;20502;-53
2023/06/03 04:01:18;;;;;;;10.75;3.30;;;;;;;-0.20;62.79;97264.19;5071835;28;20497;-53
2023/06/03 04:03:48;;;;;;;13.30;3.47;;;;;;;-0.20;62.01;97274.59;5073917;28;20078;-53
2023/06/03 04:06:36;;;;;;;16.40;3.45;;;;;;;-0.22;62.30;97279.16;5065442;28;20068;-53
2023/06/03 04:09:04;;;;;;;11.27;3.60;;;;;;;-0.19;61.88;97265.81;5052643;28;20059;-53
2023/06/03 04:11:43;;;;;;;12.15;3.40;;;;;;;-0.25;61.42;97282.13;5055550;28;20380;-52
2023/06/03 04:14:14;;;;;;;11.43;3.30;;;;;;;-0.16;60.29;97278.50;5054997;28;20394;-53
2023/06/03 04:16:57;;;;;;;10.35;3.55;;;;;;;-0.24;61.66;97286.34;5053920;28;20045;-53
2023/06/03 04:19:36;;;;;;;10.68;3.60;;;;;;;-0.30;61.39;97279.22;5055983;28;20474;-53
2023/06/03 04:22:10;;;;;;;8.43;3.40;;;;;;;-0.16;61.48;97288.94;5051060;28;20231;-54
2023/06/03 04:24:42;;;;;;;8.48;3.20;;;;;;;-0.26;60.10;97288.31;5055301;28;20119;-54
2023/06/03 04:27:08;;;;;;;11.73;3.03;;;;;;;-0.26;60.24;97281.31;5052260;28;20487;-53
2023/06/03 04:29:36;;;;;;;10.90;3.25;;;;;;;-0.18;60.80;97288.28;5055701;28;20132;-53
2023/06/03 04:32:03;;;;;;;7.38;3.10;;;;;;;-0.34;59.58;97291.78;5051067;28;20300;-53
2023/06/03 04:34:31;;;;;;;9.23;3.20;;;;;;;-0.17;59.54;97289.91;5055300;28;20045;-53
2023/06/03 04:37:00;;;;;;;12.23;3.40;;;;;;;-0.13;59.85;97287.75;5050733;28;20077;-53
2023/06/03 04:39:27;;;;;;;12.98;3.10;;;;;;;-0.19;58.82;97289.25;5055620;28;20114;-54
2023/06/03 04:41:56;;;;;;;9.32;3.20;;;;;;;-0.11;58.71;97283.19;5050892;28;20106;-53
2023/06/03 04:44:28;;;;;;;11.30;3.20;;;;;;;-0.22;58.32;97285.22;5055340;28;20056;-54
2023/06/03 04:46:55;;;;;;;8.40;2.90;;;;;;;-0.16;58.31;97283.72;5050568;28;20350;-52
2023/06/03 04:49:22;;;;;;;12.93;3.10;;;;;;;-0.07;58.89;97284.50;5052830;28;20060;-53
2023/06/03 04:51:49;;;;;;;12.32;2.90;;;;;;;-0.18;57.28;97279.63;5054869;28;20445;-52
2023/06/03 04:54:16;;;;;;;8.18;2.67;;;;;;;-0.24;56.29;97287.19;5055090;28;20048;-50
2023/06/03 04:56:47;;;;;;;9.75;2.90;;;;;;;-0.22;56.35;97286.97;5050429;28;20041;-53
2023/06/03 04:59:14;;;;;;;7.72;2.72;;;;;;;-0.06;56.76;97289.50;5055169;28;20052;-53
2023/06/03 05:01:50;;;;;;;8.70;2.60;;;;;;;0.04;55.72;97291.09;5050689;28;20041;-53
2023/06/03 05:04:20;;;;;;;9.18;2.72;;;;;;;0.04;54.87;97286.72;5054788;28;20049;-53
2023/06/03 05:06:49;;;;;;;7.93;2.47;;;;;;;0.02;54.65;97293.06;5050204;28;20052;-52
2023/06/03 05:09:16;;;;;;;8.15;2.58;;;;;;;-0.02;54.51;97292.59;5053467;28;20433;-53
2023/06/03 05:11:44;;;;;;;11.32;2.67;;;;;;;0.11;54.95;97287.66;5051588;28;20131;-53
2023/06/03 05:14:12;;;;;;;7.75;2.60;;;;;;;0.17;55.13;97280.94;5054732;28;20111;-52
2023/06/03 05:16:39;;;;;;;10.00;2.58;;;;;;;0.13;54.82;97283.06;5050146;28;20543;-53
2023/06/03 05:19:06;;;;;;;13.63;2.50;;;;;;;0.26;54.71;97282.50;5054464;28;20041;-52
2023/06/03 05:21:34;;;;;;;8.23;2.65;;;;;;;0.26;54.23;97285.09;5050102;28;20033;-53
2023/06/03 05:24:01;;;;;;;7.97;2.30;;;;;;;0.29;53.45;97283.94;5054306;28;20525;-51
2023/06/03 05:26:28;;;;;;;9.10;2.67;;;;;;;0.26;52.32;97284.31;5049819;28;20041;-53
2023/06/03 05:28:55;;;;;;;7.78;2.35;;;;;;;0.32;52.76;97281.78;5054379;28;20049;-52
2023/06/03 05:31:24;;;;;;;8.27;2.40;;;;;;;0.30;52.26;97277.75;5061279;28;20052;-53
2023/06/03 05:33:51;;;;;;;10.48;2.72;;;;;;;0.43;53.23;97291.00;5074162;28;20494;-53
2023/06/03 05:36:21;;;;;;;8.15;2.28;;;;;;;0.45;52.99;97277.81;5070807;28;20049;-53
2023/06/03 05:38:47;;;;;;;8.10;2.33;;;;;;;0.45;52.57;97276.00;5074193;28;20049;-53
2023/06/03 05:41:15;;;;;;;7.25;2.13;;;;;;;0.44;52.63;97290.03;5069870;28;20056;-52
2023/06/03 05:43:42;;;;;;;10.85;2.50;;;;;;;0.51;51.60;97285.75;5074259;28;20521;-52
2023/06/03 05:46:09;;;;;;;8.52;2.17;;;;;;;0.58;51.87;97283.25;5069234;28;20052;-52
2023/06/03 05:48:36;;;;;;;9.63;2.58;;;;;;;0.62;51.81;97286.31;5073613;28;20044;-53
2023/06/03 05:51:04;;;;;;;10.30;2.50;;;;;;;0.65;51.90;97285.97;5069350;28;20083;-53
2023/06/03 05:53:31;;;;;;;6.47;2.50;;;;;;;0.70;52.15;97294.09;5073941;28;20053;-52
2023/06/03 05:56:00;;;;;;;6.20;2.15;;;;;;;0.71;51.11;97282.66;5065821;28;20048;-53
2023/06/03 05:58:28;;;;;;;8.73;2.22;;;;;;;0.78;52.28;97283.56;5073588;28;20059;-53
2023/06/03 06:00:55;;;;;;;7.88;2.25;;;;;;;0.85;50.81;97288.91;5069156;28;20088;-53
2023/06/03 06:03:22;;;;;;;8.70;2.35;;;;;;;0.85;50.18;97283.69;5072875;28;20047;-53
2023/06/03 06:05:48;;;;;;;9.15;2.50;;;;;;;0.88;49.57;97291.16;5062914;28;20398;-53
2023/06/03 06:08:15;;;;;;;9.48;2.50;;;;;;;0.92;49.75;97279.38;5053678;28;20052;-53
2023/06/03 06:10:42;;;;;;;7.78;2.55;;;;;;;0.93;49.58;97281.00;5051503;28;20059;-53
2023/06/03 06:13:09;;;;;;;16.40;3.42;;;;;;;0.97;49.66;97289.31;5051925;28;20037;-53
2023/06/03 06:15:35;;;;;;;10.38;2.30;;;;;;;1.03;49.63;97281.56;5052466;28;20040;-52
2023/06/03 06:18:03;;;;;;;9.25;2.50;;;;;;;1.14;50.78;97286.34;5050574;28;20134;-52
2023/06/03 06:20:30;;;;;;;10.35;2.30;;;;;;;1.13;49.27;97289.94;5049766;28;20045;-52
2023/06/03 06:22:56;;;;;;;10.00;2.22;;;;;;;1.20;49.34;97290.06;5053415;28;20044;-52
2023/06/03 06:25:23;;;;;;;10.20;2.35;;;;;;;1.22;49.20;97287.25;5053088;28;20057;-50
2023/06/03 06:27:50;;;;;;;7.82;2.45;;;;;;;1.27;50.58;97284.91;5048727;28;20072;-53
2023/06/03 06:30:18;;;;;;;8.93;2.45;;;;;;;1.34;49.71;97283.19;5053146;28;20399;-51
2023/06/03 06:32:49;;;;;;;5.90;2.13;;;;;;;1.37;49.25;97287.28;5048477;28;20115;-53
2023/06/03 06:35:20;;;;;;;8.70;2.53;;;;;;;1.46;48.67;97300.06;5053020;28;20128;-53
2023/06/03 06:37:48;;;;;;;7.53;2.17;;;;;;;1.49;48.45;97296.25;5048596;28;20033;-52
2023/06/03 06:40:18;;;;;;;6.85;2.22;;;;;;;1.56;48.27;97299.78;5053290;28;20394;-53
2023/06/03 06:42:46;;;;;;;9.52;2.40;;;;;;;1.66;47.85;97299.53;5044903;28;20033;-52
2023/06/03 06:45:23;;;;;;;5.47;2.05;;;;;;;1.65;48.28;97298.69;5052633;28;20085;-51
2023/06/03 06:48:03;;;;;;;10.93;2.25;;;;;;;1.71;47.95;97302.38;5049350;28;20559;-52
2023/06/03 06:50:53;;;;;;;7.00;2.22;;;;;;;1.81;47.55;97300.31;5052233;28;20044;-51
2023/06/03 06:53:24;;;;;;;8.45;2.38;;;;;;;1.84;47.54;97302.56;5048225;28;20406;-52
2023/06/03 06:55:56;;;;;;;6.80;2.30;;;;;;;1.91;47.87;97294.78;5052631;28;20072;-53
2023/06/03 06:58:37;;;;;;;11.20;2.30;;;;;;;1.98;47.97;97302.72;5047783;28;20131;-51
2023/06/03 07:01:05;;;;;;;9.70;2.50;;;;;;;2.01;47.75;97305.78;5052751;28;20406;-53
2023/06/03 07:03:36;;;;;;;11.65;2.35;;;;;;;2.09;48.59;97312.69;5046993;28;20513;-52
2023/06/03 07:06:04;;;;;;;12.75;2.83;;;;;;;2.17;49.35;97306.56;5040912;28;20051;-52
2023/06/03 07:08:33;;;;;;;9.73;2.60;;;;;;;2.22;48.42;97309.41;5052383;28;20057;-53
2023/06/03 07:11:03;;;;;;;10.32;2.30;;;;;;;2.27;47.32;97313.13;5047655;28;20053;-53
2023/06/03 07:13:36;;;;;;;9.68;2.42;;;;;;;2.38;47.74;97311.00;5052595;28;20048;-52
2023/06/03 07:16:04;;;;;;;8.35;2.33;;;;;;;2.42;47.16;97312.22;5052075;28;20139;-52
2023/06/03 07:18:32;;;;;;;7.80;2.10;;;;;;;2.49;47.57;97320.97;5056796;28;20072;-53
2023/06/03 07:21:00;;;;;;;7.93;2.65;;;;;;;2.45;47.98;97307.44;5052424;28;20458;-53
2023/06/03 07:23:28;;;;;;;11.18;2.40;;;;;;;2.47;48.10;97308.09;5053522;28;20557;-53
2023/06/03 07:25:56;;;;;;;7.47;2.53;;;;;;;2.54;47.75;97312.56;5056672;28;20053;-53
2023/06/03 07:28:30;;;;;;;8.25;2.20;;;;;;;2.52;48.05;97312.75;5050871;28;20056;-53
2023/06/03 07:31:06;;;;;;;8.38;2.30;;;;;;;2.58;48.27;97311.19;5055079;28;20037;-53
2023/06/03 07:33:37;;;;;;;8.70;2.58;;;;;;;2.66;48.62;97317.13;5051770;28;20048;-51
2023/06/03 07:36:04;;;;;;;11.48;2.50;;;;;;;2.67;47.26;97312.69;5055224;28;20140;-52
2023/06/03 07:39:06;;;;;;;8.18;2.50;;;;;;;2.64;47.13;97311.25;5051814;28;20041;-52
2023/06/03 07:41:41;;;;;;;13.50;2.65;;;;;;;2.72;47.01;97312.13;5052680;28;20195;-53
2023/06/03 07:44:23;;;;;;;9.10;2.20;;;;;;;2.76;47.14;97318.59;5056014;28;20126;-53
2023/06/03 07:46:56;;;;;;;8.57;2.30;;;;;;;2.81;47.30;97311.81;5051249;28;20056;-52
2023/06/03 07:49:23;;;;;;;7.63;2.30;;;;;;;2.90;47.33;97312.50;5055389;28;20049;-51
2023/06/03 07:51:52;;;;;;;8.32;3.00;;;;;;;3.04;47.83;97318.66;5051175;28;20116;-52
2023/06/03 07:54:19;;;;;;;10.93;2.70;;;;;;;3.15;47.59;97309.47;5056052;28;20125;-52
2023/06/03 07:56:46;;;;;;;10.30;2.70;;;;;;;3.07;47.13;97313.84;5051148;28;20091;-52
2023/06/03 07:59:14;;;;;;;9.85;2.88;;;;;;;3.11;47.88;97309.03;5055505;28;20061;-51
2023/06/03 08:01:42;;;;;;;11.88;2.90;;;;;;;3.23;47.70;97322.41;5051167;28;20098;-52
2023/06/03 08:04:32;;;;;;;9.75;2.40;;;;;;;3.30;46.58;97327.72;5056051;28;20087;-53
2023/06/03 08:07:00;;;;;;;7.47;2.67;;;;;;;3.25;46.44;97320.41;5055377;28;20045;-53
2023/06/03 08:09:30;;;;;;;13.07;2.35;;;;;;;3.23;46.15;97310.13;5055945;28;20498;-53
2023/06/03 08:11:57;;;;;;;9.73;2.70;;;;;;;3.23;46.49;97314.56;5050749;28;20146;-52
2023/06/03 08:14:26;;;;;;;8.25;2.55;;;;;;;3.30;46.73;97317.22;5055579;28;20053;-52
2023/06/03 08:16:55;;;;;;;8.98;2.70;;;;;;;3.40;47.49;97318.50;5051139;28;20045;-52
2023/06/03 08:19:21;;;;;;;10.80;2.58;;;;;;;3.53;46.90;97316.97;5055798;28;20060;-51
2023/06/03 08:21:48;;;;;;;13.27;2.20;;;;;;;3.60;46.87;97320.44;5051354;28;20072;-53
2023/06/03 08:24:15;;;;;;;10.23;2.50;;;;;;;3.66;46.56;97319.66;5052059;28;20398;-51
2023/06/03 08:26:45;;;;;;;10.98;2.65;;;;;;;3.69;46.08;97316.66;5054654;28;20041;-52
2023/06/03 08:29:12;;;;;;;7.32;2.40;;;;;;;3.70;45.67;97317.47;5050952;28;20052;-53
2023/06/03 08:31:39;;;;;;;8.80;2.35;;;;;;;3.80;46.09;97318.75;5055331;28;20041;-52
2023/06/03 08:34:06;;;;;;;9.93;2.70;;;;;;;3.82;45.80;97319.34;5050745;28;20049;-52
2023/06/03 08:36:33;;;;;;;10.82;2.85;;;;;;;3.96;45.91;97322.81;5055176;28;20045;-52
2023/06/03 08:39:00;;;;;;;9.05;2.30;;;;;;;4.03;45.46;97320.25;5050877;28;20486;-52
2023/06/03 08:41:37;;;;;;;7.65;2.30;;;;;;;4.09;44.89;97322.06;5034385;28;20099;-51
2023/06/03 08:44:13;;;;;;;12.70;2.33;;;;;;;4.27;45.34;97312.84;5054967;28;20250;-53
2023/06/03 08:46:45;;;;;;;14.52;2.47;;;;;;;4.32;44.27;97313.88;5054064;28;20177;-52
2023/06/03 08:49:22;;;;;;;13.05;2.65;;;;;;;4.52;44.68;97311.31;5052445;28;20045;-52
2023/06/03 08:51:53;;;;;;;11.90;2.25;;;;;;;4.63;43.98;97317.00;5051769;28;20044;-53
2023/06/03 08:54:23;;;;;;;13.53;2.40;;;;;;;4.90;43.58;97323.09;5054836;28;20052;-53
2023/06/03 08:56:57;;;;;;;8.45;2.50;;;;;;;4.89;42.14;97327.50;5051455;28;20077;-53
2023/06/03 08:59:28;;;;;;;14.40;2.75;;;;;;;4.85;42.46;97318.41;5054703;28;20123;-52
2023/06/03 09:01:56;;;;;;;9.75;2.75;;;;;;;5.06;42.36;97324.47;5051742;28;20060;-53
2023/06/03 09:04:24;;;;;;;12.82;2.25;;;;;;;5.03;41.88;97324.91;5054428;28;20494;-52
2023/06/03 09:06:52;;;;;;;10.10;2.55;;;;;;;5.23;41.44;97327.53;5049544;28;20120;-52
2023/06/03 09:09:20;;;;;;;9.05;2.40;;;;;;;5.29;41.31;97322.25;5054393;28;20045;-52
2023/06/03 09:11:49;;;;;;;11.05;2.70;;;;;;;5.38;41.53;97331.56;5050117;28;20045;-51
2023/06/03 09:14:17;;;;;;;8.70;2.25;;;;;;;5.43;41.31;97327.50;5054336;28;20041;-52
2023/06/03 09:16:44;;;;;;;11.27;2.40;;;;;;;5.16;41.74;97324.91;5050340;28;20057;-52
2023/06/03 09:19:11;;;;;;;15.98;3.45;;;;;;;5.21;41.48;97332.19;5054227;28;20556;-52
2023/06/03 09:21:43;;;;;;;11.20;2.72;;;;;;;5.39;41.55;97332.38;5047908;28;20048;-52
2023/06/03 09:24:11;;;;;;;8.52;2.42;;;;;;;5.34;40.91;97332.97;5034362;28;20042;-53
2023/06/03 09:26:37;;;;;;;10.07;2.33;;;;;;;5.37;40.83;97335.19;5031113;28;20061;-53
2023/06/03 09:29:06;;;;;;;7.78;2.10;;;;;;;5.71;40.82;97343.03;5033971;28;20450;-53
2023/06/03 09:31:33;;;;;;;19.55;2.70;;;;;;;5.81;40.27;97339.97;5035985;28;20160;-52
2023/06/03 09:34:01;;;;;;;9.40;2.30;;;;;;;5.78;39.29;97349.09;5053682;28;20045;-52
2023/06/03 09:36:27;;;;;;;8.23;2.33;;;;;;;5.70;39.31;97344.84;5048580;28;20045;-53
2023/06/03 09:38:56;;;;;;;9.40;2.33;;;;;;;5.73;39.63;97346.25;5052644;28;20044;-52
2023/06/03 09:41:26;;;;;;;12.40;2.30;;;;;;;5.68;39.35;97340.81;5049674;28;20048;-52
2023/06/03 09:43:55;;;;;;;6.18;2.30;;;;;;;5.90;40.15;97338.75;5054016;28;20045;-51
2023/06/03 09:46:23;;;;;;;11.65;2.42;;;;;;;5.79;39.07;97332.28;5049194;28;20494;-50
2023/06/03 09:48:49;;;;;;;10.45;2.20;;;;;;;5.80;38.92;97327.84;5049869;28;20045;-51
2023/06/03 09:51:16;;;;;;;9.02;2.20;;;;;;;6.17;39.50;97336.03;5053602;28;20060;-53
2023/06/03 09:53:43;;;;;;;9.98;2.38;;;;;;;6.08;38.24;97332.84;5051758;28;20049;-52
2023/06/03 09:56:26;;;;;;;8.88;2.30;;;;;;;6.25;38.22;97335.81;5051534;28;20090;-52
2023/06/03 09:59:21;;;;;;;7.82;2.17;;;;;;;6.28;38.16;97338.03;5049004;28;20057;-52
2023/06/03 10:01:49;;;;;;;9.40;2.30;;;;;;;6.11;37.79;97342.94;5053896;28;20044;-51
2023/06/03 10:04:20;;;;;;;16.77;2.80;;;;;;;6.14;37.49;97338.06;5048680;28;20434;-53
2023/06/03 10:06:48;;;;;;;10.98;3.00;;;;;;;6.21;37.71;97327.53;5053590;28;20049;-52
2023/06/03 10:09:18;;;;;;;11.80;2.45;;;;;;;6.48;37.86;97338.72;5049157;28;20053;-53
2023/06/03 10:11:47;;;;;;;12.43;2.75;;;;;;;6.69;37.72;97342.06;5053587;28;20057;-53
2023/06/03 10:14:15;;;;;;;10.05;2.47;;;;;;;6.70;37.02;97336.56;5048723;28;20676;-53
2023/06/03 10:17:03;;;;;;;14.07;2.88;;;;;;;6.49;36.81;97329.81;5050056;28;20049;-52
2023/06/03 10:19:33;;;;;;;9.10;2.75;;;;;;;6.73;37.63;97335.34;5053454;28;20110;-53
2023/06/03 10:22:00;;;;;;;13.73;2.53;;;;;;;7.16;36.33;97336.47;5048737;28;20060;-53
2023/06/03 10:24:29;;;;;;;10.88;2.60;;;;;;;7.08;35.38;97335.72;5053124;28;20045;-52
2023/06/03 10:26:55;;;;;;;10.07;3.17;;;;;;;7.21;34.98;97347.19;5047594;28;20049;-53
2023/06/03 10:29:24;;;;;;;20.85;2.90;;;;;;;7.07;35.62;97339.34;5053468;28;20045;-52
2023/06/03 10:31:53;;;;;;;11.48;3.03;;;;;;;7.04;35.75;97333.72;5048942;28;20376;-53
2023/06/03 10:34:20;;;;;;;13.25;3.13;;;;;;;7.23;35.63;97335.38;5049896;28;20033;-53
2023/06/03 10:36:51;;;;;;;13.77;3.10;;;;;;;7.57;35.42;97346.47;5052843;28;20449;-53
2023/06/03 10:39:19;;;;;;;19.55;2.83;;;;;;;7.38;36.08;97336.88;5048526;28;20056;-53
2023/06/03 10:41:46;;;;;;;11.10;2.60;;;;;;;8.05;35.40;97351.03;5053450;28;20062;-52
2023/06/03 10:44:12;;;;;;;8.18;2.60;;;;;;;8.23;35.20;97352.84;5048461;28;20317;-52
2023/06/03 10:46:49;;;;;;;11.70;3.17;;;;;;;7.48;34.96;97345.91;5052872;28;20455;-53
2023/06/03 10:49:18;;;;;;;9.00;2.75;;;;;;;7.41;35.51;97342.53;5047694;28;20075;-52
2023/06/03 10:54:32;;;;;;;11.98;2.70;;;;;;;7.55;35.55;97339.78;5107047;27;20388;-52
2023/06/03 10:57:06;;;;;;;9.88;2.65;;;;;;;7.69;35.28;97349.16;5110888;28;20054;-53
2023/06/03 10:59:42;;;;;;;11.80;3.38;;;;;;;8.02;34.57;97353.28;5106378;28;20052;-52
2023/06/03 11:02:10;;;;;;;10.90;2.70;;;;;;;7.98;35.61;97352.94;5110738;28;20051;-52
2023/06/03 11:04:37;;;;;;;7.03;2.63;;;;;;;8.17;35.25;97348.47;5097711;28;20044;-53
2023/06/03 11:07:07;;;;;;;8.90;2.60;;;;;;;8.46;34.13;97359.31;5101079;28;20051;-52
2023/06/03 11:09:36;;;;;;;11.95;2.95;;;;;;;8.39;34.69;97356.72;5090010;28;20068;-52
2023/06/03 11:12:08;;;;;;;9.13;2.80;;;;;;;8.05;34.61;97352.88;5094910;28;20489;-52
2023/06/03 11:17:12;;;;;;;12.23;3.30;;;;;;;8.17;34.70;97342.38;5092168;27;20386;-52
2023/06/03 11:19:56;;;;;;;9.68;2.90;;;;;;;8.10;34.07;97347.72;5093658;28;20035;-53
2023/06/03 11:25:25;;;;;;;10.88;2.97;;;;;;;8.40;34.21;97346.97;5087736;27;20392;-53
2023/06/03 11:27:52;;;;;;;14.35;2.90;;;;;;;8.53;34.11;97353.94;5085013;28;20640;-53
2023/06/03 11:30:18;;;;;;;14.55;3.35;;;;;;;8.82;35.30;97342.56;5088234;28;20044;-52
2023/06/03 11:33:07;;;;;;;11.30;3.15;;;;;;;8.83;34.51;97351.28;5050860;28;20040;-53
2023/06/03 11:35:34;;;;;;;12.93;2.97;;;;;;;8.63;33.59;97348.94;5088509;28;20440;-52
2023/06/03 11:38:01;;;;;;;19.73;3.20;;;;;;;9.03;34.10;97353.66;5084406;28;20114;-52
2023/06/03 11:40:44;;;;;;;17.02;3.50;;;;;;;8.93;33.57;97358.66;5088219;28;20138;-52
2023/06/03 11:43:11;;;;;;;13.35;3.08;;;;;;;9.21;33.31;97350.13;5084878;28;20674;-53
2023/06/03 11:45:38;;;;;;;13.70;3.42;;;;;;;9.54;33.05;97359.34;5088821;28;20440;-53
2023/06/03 11:48:09;;;;;;;13.20;3.40;;;;;;;9.44;32.34;97352.00;5066608;28;20036;-51
2023/06/03 11:50:54;;;;;;;12.57;2.92;;;;;;;8.89;32.83;97346.94;5088113;28;20044;-51
2023/06/03 11:53:38;;;;;;;15.63;2.95;;;;;;;9.36;33.56;97347.03;5065851;28;20454;-53
2023/06/03 11:56:08;;;;;;;9.32;3.08;;;;;;;9.21;33.07;97342.19;5081435;28;20147;-52